Time;durP1;ratioP1;P1;durP2;ratioP2;P2;SDS_P1;SDS_P2;PMS_P1;PMS_P2;Temp;Humidity;BMP_temperature;BMP_pressure;BME280_temperature;BME280_humidity;BME280_pressure;Samples;Min_cycle;Max_cycle;Signal;HPM_P1;HPM_P2
2023/07/17 00:00:12;;;;;;;10.87;9.60;;;21.80;1.00;;;;;;5038030;28;20459;-77
2023/07/17 00:02:39;;;;;;;11.17;10.17;;;21.80;1.00;;;;;;5041595;28;20474;-77
2023/07/17 00:05:06;;;;;;;8.00;7.27;;;21.80;1.00;;;;;;5041974;28;22198;-77
2023/07/17 00:07:33;;;;;;;10.07;9.07;;;21.80;1.00;;;;;;5042488;28;20462;-76
2023/07/17 00:10:03;;;;;;;9.20;8.30;;;21.80;1.00;;;;;;5043960;28;20462;-77
2023/07/17 00:12:31;;;;;;;9.40;8.50;;;21.80;1.00;;;;;;5041922;28;20486;-77
2023/07/17 00:14:58;;;;;;;9.77;8.87;;;21.70;1.00;;;;;;5042712;28;20479;-78
2023/07/17 00:17:25;;;;;;;9.00;8.20;;;21.70;1.00;;;;;;5043809;28;20460;-77
2023/07/17 00:19:56;;;;;;;11.00;9.80;;;21.70;1.00;;;;;;5041062;28;20539;-77
2023/07/17 00:22:23;;;;;;;9.73;8.73;;;21.80;1.00;;;;;;5041654;28;20922;-76
2023/07/17 00:24:50;;;;;;;12.70;9.20;;;21.70;1.00;;;;;;5043931;28;20934;-76
2023/07/17 00:27:19;;;;;;;8.67;7.83;;;21.70;1.00;;;;;;5040496;28;20544;-77
2023/07/17 00:29:46;;;;;;;8.50;7.70;;;21.70;1.00;;;;;;5044508;28;20915;-76
2023/07/17 00:32:13;;;;;;;9.00;8.13;;;21.80;1.00;;;;;;5043727;28;20479;-74
2023/07/17 00:34:41;;;;;;;7.93;7.13;;;21.80;1.00;;;;;;5038363;28;20502;-74
2023/07/17 00:37:08;;;;;;;7.63;6.93;;;21.70;1.00;;;;;;5040915;28;20688;-74
2023/07/17 00:39:35;;;;;;;7.87;7.07;;;21.80;1.00;;;;;;5041194;28;20510;-74
2023/07/17 00:42:03;;;;;;;7.80;7.00;;;21.80;1.00;;;;;;5043082;28;20423;-73
2023/07/17 00:44:31;;;;;;;7.53;6.70;;;21.80;1.00;;;;;;5044284;28;20542;-74
2023/07/17 00:46:59;;;;;;;7.47;6.70;;;21.80;1.00;;;;;;5018412;28;20543;-74
2023/07/17 00:49:29;;;;;;;7.57;6.87;;;21.70;1.00;;;;;;5036424;28;20552;-74
2023/07/17 00:51:57;;;;;;;7.33;6.63;;;21.70;1.00;;;;;;5041294;28;20474;-74
2023/07/17 00:54:24;;;;;;;7.03;5.90;;;21.60;1.00;;;;;;5040668;28;20544;-74
2023/07/17 00:56:52;;;;;;;7.57;6.87;;;21.60;1.00;;;;;;5040229;28;20570;-74
2023/07/17 00:59:20;;;;;;;8.50;6.07;;;21.60;1.00;;;;;;5040915;28;20469;-74
2023/07/17 01:01:49;;;;;;;7.73;6.97;;;21.60;1.00;;;;;;5058291;22;20471;-73
2023/07/17 01:04:16;;;;;;;6.77;6.10;;;21.60;1.00;;;;;;5024733;28;21300;-77
2023/07/17 01:06:43;;;;;;;8.00;6.40;;;21.60;1.00;;;;;;5025062;28;20462;-74
2023/07/17 01:09:12;;;;;;;7.07;6.40;;;21.60;1.00;;;;;;5022139;28;20473;-75
2023/07/17 01:11:39;;;;;;;7.27;6.43;;;21.60;1.00;;;;;;5025633;28;20880;-76
2023/07/17 01:14:08;;;;;;;8.97;6.97;;;21.60;1.00;;;;;;5022536;28;20893;-75
2023/07/17 01:16:36;;;;;;;8.50;5.20;;;21.60;1.00;;;;;;5025981;28;20553;-76
2023/07/17 01:19:04;;;;;;;5.47;4.97;;;21.60;1.00;;;;;;5028756;28;20499;-76
2023/07/17 01:21:34;;;;;;;6.73;5.57;;;21.60;1.00;;;;;;5026115;28;20469;-75
2023/07/17 01:24:02;;;;;;;6.30;5.20;;;21.60;1.00;;;;;;5025067;28;20456;-75
2023/07/17 01:26:29;;;;;;;8.97;6.17;;;21.60;1.00;;;;;;5029129;28;20538;-75
2023/07/17 01:28:56;;;;;;;7.90;5.03;;;21.60;1.00;;;;;;5023600;28;21037;-74
2023/07/17 01:31:23;;;;;;;7.23;5.10;;;21.60;1.00;;;;;;5023217;28;20468;-76
2023/07/17 01:33:50;;;;;;;6.00;4.90;;;21.50;1.00;;;;;;5024896;28;20598;-74
2023/07/17 01:36:17;;;;;;;7.10;5.30;;;21.50;1.00;;;;;;5027912;28;20466;-75
2023/07/17 01:38:44;;;;;;;5.70;5.07;;;21.60;1.00;;;;;;5021831;28;20569;-75
2023/07/17 01:41:12;;;;;;;5.97;5.40;;;21.60;1.00;;;;;;5016306;28;20626;-74
2023/07/17 01:43:39;;;;;;;6.20;5.00;;;21.60;1.00;;;;;;5017693;28;20484;-75
2023/07/17 01:46:06;;;;;;;5.03;4.53;;;21.60;1.00;;;;;;5028728;28;20545;-75
2023/07/17 01:48:34;;;;;;;5.80;5.20;;;21.60;1.00;;;;;;5028448;28;20533;-73
2023/07/17 01:51:01;;;;;;;7.73;4.80;;;21.50;1.00;;;;;;5031453;28;20470;-76
2023/07/17 01:53:28;;;;;;;6.10;5.03;;;21.40;1.00;;;;;;5029503;28;20562;-76
2023/07/17 01:55:54;;;;;;;5.87;5.37;;;21.40;1.00;;;;;;5024413;28;20461;-74
2023/07/17 01:58:23;;;;;;;6.13;5.23;;;21.20;1.00;;;;;;5029711;28;20557;-76
2023/07/17 02:00:53;;;;;;;5.30;4.60;;;21.20;1.00;;;;;;5028070;28;21455;-75
2023/07/17 02:03:20;;;;;;;5.97;5.47;;;21.20;1.00;;;;;;5026766;28;20553;-75
2023/07/17 02:05:47;;;;;;;8.07;5.03;;;21.20;1.00;;;;;;5028785;28;20491;-74
2023/07/17 02:08:14;;;;;;;5.13;4.73;;;21.30;1.00;;;;;;5028383;28;20491;-75
2023/07/17 02:10:41;;;;;;;6.90;5.50;;;21.20;1.00;;;;;;5025669;28;20554;-76
2023/07/17 02:13:08;;;;;;;6.40;5.70;;;21.20;1.00;;;;;;5015758;28;20482;-75
2023/07/17 02:15:37;;;;;;;5.70;5.20;;;21.10;1.00;;;;;;5030314;28;20496;-75
2023/07/17 02:18:04;;;;;;;5.77;4.77;;;21.00;1.00;;;;;;5026997;28;20465;-75
2023/07/17 02:20:31;;;;;;;5.83;5.13;;;20.90;1.00;;;;;;5025085;28;20583;-74
2023/07/17 02:22:57;;;;;;;5.40;4.90;;;20.90;1.00;;;;;;5027318;28;21233;-75
2023/07/17 02:25:24;;;;;;;5.40;4.90;;;20.90;1.00;;;;;;5028119;28;20502;-75
2023/07/17 02:27:51;;;;;;;5.07;4.57;;;20.70;1.00;;;;;;5024583;28;20509;-75
2023/07/17 02:30:18;;;;;;;6.13;5.07;;;20.70;1.00;;;;;;5026621;28;20455;-76
2023/07/17 02:32:46;;;;;;;6.13;5.40;;;20.60;1.00;;;;;;5027332;28;20560;-74
2023/07/17 02:35:14;;;;;;;7.40;5.93;;;20.60;1.00;;;;;;5025868;28;20466;-74
2023/07/17 02:37:40;;;;;;;5.57;5.07;;;20.60;1.00;;;;;;5025948;28;20476;-74
2023/07/17 02:40:12;;;;;;;6.30;5.60;;;20.50;1.00;;;;;;5027378;28;20501;-75
2023/07/17 02:42:39;;;;;;;6.47;5.63;;;20.40;1.00;;;;;;5026267;28;20906;-74
2023/07/17 02:45:08;;;;;;;6.03;5.43;;;20.30;1.00;;;;;;5023799;28;20467;-74
2023/07/17 02:47:35;;;;;;;6.27;5.70;;;20.30;1.00;;;;;;5023779;28;20531;-74
2023/07/17 02:50:05;;;;;;;5.53;4.80;;;20.20;1.00;;;;;;5025841;28;21413;-75
2023/07/17 02:52:34;;;;;;;6.53;5.93;;;20.10;1.00;;;;;;5023763;28;23107;-74
2023/07/17 02:55:02;;;;;;;6.40;5.77;;;20.10;1.00;;;;;;5024503;28;20522;-75
2023/07/17 02:57:28;;;;;;;6.23;5.63;;;20.00;1.00;;;;;;5027568;28;20484;-75
2023/07/17 02:59:56;;;;;;;6.23;5.63;;;20.00;1.00;;;;;;5026891;28;20458;-74
2023/07/17 03:02:24;;;;;;;5.87;5.27;;;19.90;1.00;;;;;;5027712;28;20445;-74
2023/07/17 03:04:50;;;;;;;7.93;5.50;;;19.80;1.00;;;;;;5025050;28;20465;-75
2023/07/17 03:07:19;;;;;;;7.00;5.43;;;19.80;1.00;;;;;;5024356;28;20476;-75
2023/07/17 03:09:46;;;;;;;7.13;5.97;;;19.80;1.00;;;;;;5026036;28;20957;-74
2023/07/17 03:12:12;;;;;;;8.53;6.37;;;19.70;1.00;;;;;;5026833;28;20555;-76
2023/07/17 03:14:39;;;;;;;10.60;6.03;;;19.70;1.00;;;;;;5023988;28;21618;-75
2023/07/17 03:17:06;;;;;;;6.30;5.70;;;19.70;1.00;;;;;;5027646;28;20466;-75
2023/07/17 03:19:33;;;;;;;6.67;5.20;;;19.70;1.00;;;;;;5026735;28;20549;-76
2023/07/17 03:22:00;;;;;;;6.00;5.13;;;19.70;1.00;;;;;;5032710;28;20464;-76
2023/07/17 03:24:29;;;;;;;6.53;5.40;;;19.70;1.00;;;;;;5032040;28;20559;-76
2023/07/17 03:26:55;;;;;;;6.03;5.53;;;19.80;1.00;;;;;;5028517;28;20460;-75
2023/07/17 03:29:22;;;;;;;6.93;5.70;;;19.80;1.00;;;;;;5028705;28;20465;-77
2023/07/17 03:31:49;;;;;;;8.77;5.60;;;19.80;1.00;;;;;;5026185;28;20498;-76
2023/07/17 03:34:16;;;;;;;7.37;5.60;;;19.90;1.00;;;;;;5028692;28;20489;-76
2023/07/17 03:36:43;;;;;;;7.40;6.27;;;19.80;1.00;;;;;;5028087;28;20502;-75
2023/07/17 03:39:10;;;;;;;12.13;6.33;;;19.80;1.00;;;;;;5025370;28;21029;-74
2023/07/17 03:41:38;;;;;;;7.30;6.60;;;19.70;1.00;;;;;;5027645;28;21601;-75
2023/07/17 03:44:05;;;;;;;6.13;5.40;;;19.50;1.00;;;;;;5027684;28;20492;-75
2023/07/17 03:46:32;;;;;;;9.10;5.30;;;19.50;1.00;;;;;;5028150;28;20479;-75
2023/07/17 03:48:59;;;;;;;6.10;5.50;;;19.50;1.00;;;;;;5029289;28;20551;-73
2023/07/17 03:51:26;;;;;;;6.73;6.07;;;19.50;1.00;;;;;;5030830;28;20468;-75
2023/07/17 03:53:53;;;;;;;9.60;6.77;;;19.40;1.00;;;;;;5027190;28;20655;-76
2023/07/17 03:56:20;;;;;;;8.47;7.27;;;19.40;1.00;;;;;;5027673;28;20518;-75
2023/07/17 03:58:48;;;;;;;7.63;6.90;;;19.50;1.00;;;;;;5028658;28;20463;-76
2023/07/17 04:01:15;;;;;;;7.53;6.70;;;19.50;1.00;;;;;;5030299;28;20569;-76
2023/07/17 04:03:42;;;;;;;10.00;7.40;;;19.50;1.00;;;;;;5023772;28;20960;-76
2023/07/17 04:06:09;;;;;;;7.47;6.60;;;19.60;1.00;;;;;;5028065;28;20473;-76
2023/07/17 04:08:36;;;;;;;10.37;9.30;;;19.70;1.00;;;;;;5027623;28;20485;-76
2023/07/17 04:11:04;;;;;;;9.70;6.93;;;19.70;1.00;;;;;;5025266;28;20599;-74
2023/07/17 04:13:31;;;;;;;16.60;8.00;;;19.70;1.00;;;;;;5026693;28;20905;-73
2023/07/17 04:16:01;;;;;;;8.17;6.63;;;19.80;1.00;;;;;;5027327;28;20812;-75
2023/07/17 04:18:28;;;;;;;6.80;6.00;;;19.70;1.00;;;;;;5028849;28;20562;-75
2023/07/17 04:20:55;;;;;;;9.03;7.47;;;19.70;1.00;;;;;;5028171;28;20452;-75
2023/07/17 04:23:22;;;;;;;7.53;6.73;;;19.70;1.00;;;;;;5025025;28;21191;-76
2023/07/17 04:25:50;;;;;;;7.03;6.33;;;19.60;1.00;;;;;;5027512;28;20570;-76
2023/07/17 04:28:17;;;;;;;10.63;6.90;;;19.60;1.00;;;;;;5025325;28;20586;-75
2023/07/17 04:30:44;;;;;;;10.13;8.00;;;19.70;1.00;;;;;;5026664;28;22448;-74
2023/07/17 04:33:12;;;;;;;11.40;6.67;;;19.70;1.00;;;;;;5025040;28;20911;-75
2023/07/17 04:35:40;;;;;;;6.40;5.90;;;19.80;1.00;;;;;;5026135;28;20953;-75
2023/07/17 04:38:07;;;;;;;7.60;6.77;;;19.80;1.00;;;;;;5024435;28;20503;-76
2023/07/17 04:40:34;;;;;;;9.03;6.70;;;19.90;1.00;;;;;;5025978;28;20497;-74
2023/07/17 04:43:01;;;;;;;7.50;6.77;;;19.80;1.00;;;;;;5027945;28;20468;-76
2023/07/17 04:45:28;;;;;;;6.70;6.10;;;19.90;1.00;;;;;;5026670;28;20903;-77
2023/07/17 04:47:55;;;;;;;7.07;6.30;;;19.80;1.00;;;;;;5029300;28;20555;-76
2023/07/17 04:50:26;;;;;;;8.70;6.43;;;19.80;1.00;;;;;;5025083;28;20493;-76
2023/07/17 04:52:53;;;;;;;7.80;6.87;;;19.90;1.00;;;;;;5027975;28;20462;-76
2023/07/17 04:55:21;;;;;;;8.87;7.07;;;19.90;1.00;;;;;;5030639;28;21172;-77
2023/07/17 04:57:48;;;;;;;6.73;6.13;;;19.90;1.00;;;;;;5022603;28;20483;-78
2023/07/17 05:00:17;;;;;;;11.03;6.33;;;19.90;1.00;;;;;;5026168;28;20467;-76
2023/07/17 05:02:44;;;;;;;7.83;6.50;;;20.00;1.00;;;;;;5026944;28;20595;-78
2023/07/17 05:05:12;;;;;;;6.93;5.20;;;20.10;1.00;;;;;;5028364;28;20581;-75
2023/07/17 05:07:42;;;;;;;7.47;6.43;;;20.30;1.00;;;;;;5025915;28;20488;-76
2023/07/17 05:10:10;;;;;;;7.80;7.10;;;20.40;1.00;;;;;;5027218;28;20477;-76
2023/07/17 05:12:39;;;;;;;8.53;6.70;;;20.60;1.00;;;;;;5029464;28;20560;-77
2023/07/17 05:15:07;;;;;;;7.67;5.90;;;20.80;1.00;;;;;;5026974;28;20462;-76
2023/07/17 05:17:34;;;;;;;6.40;5.30;;;20.90;1.00;;;;;;5024518;28;20549;-75
2023/07/17 05:20:04;;;;;;;7.07;5.73;;;21.10;1.00;;;;;;5025680;28;20908;-76
2023/07/17 05:22:31;;;;;;;8.07;6.47;;;21.10;1.00;;;;;;5022617;28;20946;-83
2023/07/17 05:25:00;;;;;;;6.77;6.10;;;21.10;1.00;;;;;;5022665;28;20449;-73
2023/07/17 05:27:26;;;;;;;6.60;6.00;;;21.20;1.00;;;;;;5021546;28;20452;-74
2023/07/17 05:29:54;;;;;;;6.83;5.53;;;21.10;1.00;;;;;;5022353;28;20579;-74
2023/07/17 05:32:20;;;;;;;6.93;5.83;;;21.10;1.00;;;;;;5021028;28;20558;-76
2023/07/17 05:34:48;;;;;;;10.93;7.17;;;21.10;1.00;;;;;;5023267;28;20462;-76
2023/07/17 05:37:17;;;;;;;6.43;5.80;;;21.10;1.00;;;;;;5021290;28;21362;-75
2023/07/17 05:39:44;;;;;;;6.80;5.60;;;21.10;1.00;;;;;;5017732;28;20469;-74
2023/07/17 05:42:12;;;;;;;6.23;5.63;;;21.20;1.00;;;;;;5020948;28;20559;-75
2023/07/17 05:44:39;;;;;;;8.00;5.40;;;21.20;1.00;;;;;;5022891;28;20498;-75
2023/07/17 05:47:06;;;;;;;6.80;6.20;;;21.20;1.00;;;;;;5025092;28;20550;-75
2023/07/17 05:49:33;;;;;;;6.80;6.20;;;21.10;1.00;;;;;;5023830;28;21117;-74
2023/07/17 05:52:00;;;;;;;7.77;5.57;;;21.10;1.00;;;;;;5021777;28;20454;-75
2023/07/17 05:54:27;;;;;;;6.77;5.90;;;21.00;1.00;;;;;;5020801;28;20458;-76
2023/07/17 05:56:54;;;;;;;9.90;5.83;;;21.10;1.00;;;;;;5018518;28;20572;-75
2023/07/17 05:59:22;;;;;;;7.43;6.03;;;21.20;1.00;;;;;;5019215;28;20481;-74
2023/07/17 06:01:49;;;;;;;9.03;5.83;;;21.30;1.00;;;;;;5021136;28;20473;-75
2023/07/17 06:04:16;;;;;;;6.57;5.87;;;21.30;1.00;;;;;;5020252;28;20465;-75
2023/07/17 06:06:43;;;;;;;6.90;6.30;;;21.30;1.00;;;;;;5019919;28;20545;-76
2023/07/17 06:09:10;;;;;;;9.53;5.80;;;21.40;1.00;;;;;;5019464;28;20496;-75
2023/07/17 06:11:37;;;;;;;11.27;8.40;;;21.50;1.00;;;;;;5018813;28;20874;-75
2023/07/17 06:14:04;;;;;;;9.67;6.30;;;21.60;1.00;;;;;;5022329;28;20478;-75
2023/07/17 06:16:34;;;;;;;6.77;6.07;;;21.70;1.00;;;;;;5023969;28;20474;-74
2023/07/17 06:19:01;;;;;;;6.60;6.00;;;21.80;1.00;;;;;;5024699;28;20478;-74
2023/07/17 06:21:27;;;;;;;6.77;5.67;;;21.90;1.00;;;;;;5022891;28;20485;-74
2023/07/17 06:23:54;;;;;;;7.07;6.37;;;22.00;1.00;;;;;;5019400;28;21365;-75
2023/07/17 06:26:21;;;;;;;9.43;5.53;;;22.10;1.00;;;;;;5020352;28;20426;-74
2023/07/17 06:28:50;;;;;;;7.33;6.37;;;22.20;1.00;;;;;;5020628;28;20513;-74
2023/07/17 06:31:17;;;;;;;6.70;6.00;;;22.40;1.00;;;;;;5023301;28;20457;-74
2023/07/17 06:33:46;;;;;;;6.30;5.70;;;22.50;1.00;;;;;;5026877;28;20460;-74
2023/07/17 06:36:13;;;;;;;5.77;5.07;;;22.70;1.00;;;;;;5025803;28;20885;-74
2023/07/17 06:38:39;;;;;;;6.80;5.70;;;22.90;1.00;;;;;;5023949;28;20478;-75
2023/07/17 06:41:06;;;;;;;7.20;4.80;;;23.20;1.00;;;;;;5023531;28;20472;-75
2023/07/17 06:43:33;;;;;;;6.10;5.50;;;23.40;1.00;;;;;;5023062;28;20477;-75
2023/07/17 06:46:00;;;;;;;8.77;5.53;;;23.60;1.00;;;;;;5023750;28;20558;-75
2023/07/17 06:48:27;;;;;;;7.13;4.80;;;23.90;1.00;;;;;;5030588;28;22999;-73
2023/07/17 06:50:56;;;;;;;10.90;7.57;;;24.10;1.00;;;;;;5024647;28;20823;-74
2023/07/17 06:53:22;;;;;;;7.33;6.50;;;24.00;1.00;;;;;;5024796;28;20947;-75
2023/07/17 06:55:56;;;;;;;6.07;5.47;;;23.80;1.00;;;;;;5023540;28;20470;-76
2023/07/17 06:58:23;;;;;;;7.97;5.63;;;23.50;1.00;;;;;;5024746;28;20479;-75
2023/07/17 07:00:56;;;;;;;6.80;6.10;;;23.40;1.00;;;;;;5025286;28;20637;-76
2023/07/17 07:03:24;;;;;;;7.00;6.30;;;23.50;1.00;;;;;;5022938;28;20490;-75
2023/07/17 07:05:56;;;;;;;6.50;5.87;;;23.50;1.00;;;;;;5023375;28;20487;-74
2023/07/17 07:08:23;;;;;;;7.20;6.50;;;23.70;1.00;;;;;;5022024;28;20701;-75
2023/07/17 07:10:51;;;;;;;6.47;5.87;;;23.80;1.00;;;;;;5022929;28;20454;-75
2023/07/17 07:13:20;;;;;;;7.90;5.97;;;24.10;1.00;;;;;;5019146;28;20454;-75
2023/07/17 07:15:47;;;;;;;9.40;7.40;;;24.20;1.00;;;;;;5023239;28;21997;-74
2023/07/17 07:18:14;;;;;;;6.13;5.60;;;24.20;1.00;;;;;;5028810;28;20505;-74
2023/07/17 07:20:41;;;;;;;6.60;6.00;;;24.20;1.00;;;;;;5009684;28;20459;-74
2023/07/17 07:23:09;;;;;;;5.97;5.47;;;24.30;1.00;;;;;;5023214;28;20487;-74
2023/07/17 07:25:36;;;;;;;5.87;5.00;;;24.30;1.00;;;;;;5023012;28;20546;-74
2023/07/17 07:28:05;;;;;;;6.40;5.77;;;24.40;1.00;;;;;;5025158;28;20472;-75
2023/07/17 07:30:32;;;;;;;5.77;5.03;;;24.40;1.00;;;;;;5019371;28;20476;-73
2023/07/17 07:32:59;;;;;;;7.70;6.47;;;24.40;1.00;;;;;;5022014;28;20489;-73
2023/07/17 07:35:26;;;;;;;5.80;5.20;;;24.30;1.00;;;;;;5020540;28;20484;-74
2023/07/17 07:37:53;;;;;;;6.77;5.50;;;24.10;1.00;;;;;;5022895;28;20525;-73
2023/07/17 07:40:21;;;;;;;5.30;4.80;;;24.00;1.00;;;;;;5021755;28;20560;-74
2023/07/17 07:42:48;;;;;;;5.90;4.90;;;23.90;1.00;;;;;;5022584;28;20494;-74
2023/07/17 07:45:16;;;;;;;6.83;6.13;;;24.00;1.00;;;;;;5020909;28;21934;-75
2023/07/17 07:47:43;;;;;;;8.13;5.93;;;24.20;1.00;;;;;;5022192;28;20481;-74
2023/07/17 07:50:11;;;;;;;7.77;5.73;;;24.30;1.00;;;;;;5025475;28;20554;-73
2023/07/17 07:52:38;;;;;;;6.30;4.90;;;24.40;1.00;;;;;;5021912;28;20557;-75
2023/07/17 07:55:06;;;;;;;8.87;6.30;;;24.40;1.00;;;;;;5025940;28;20850;-74
2023/07/17 07:57:34;;;;;;;6.47;5.80;;;24.50;1.00;;;;;;5023713;28;20478;-74
2023/07/17 08:00:03;;;;;;;6.23;5.63;;;24.60;1.00;;;;;;5020526;28;20498;-74
2023/07/17 08:02:30;;;;;;;6.20;5.60;;;24.80;1.00;;;;;;5022605;28;20506;-73
2023/07/17 08:04:57;;;;;;;5.23;4.73;;;24.90;1.00;;;;;;5023965;28;20940;-75
2023/07/17 08:07:24;;;;;;;4.83;4.43;;;25.10;1.00;;;;;;5022441;28;20478;-74
2023/07/17 08:09:50;;;;;;;7.27;5.43;;;25.20;1.00;;;;;;5020600;28;20713;-75
2023/07/17 08:12:17;;;;;;;5.20;4.70;;;25.20;1.00;;;;;;5021854;28;20887;-74
2023/07/17 08:14:45;;;;;;;7.77;5.53;;;25.10;1.00;;;;;;5021455;28;21068;-75
2023/07/17 08:17:12;;;;;;;5.90;5.23;;;25.10;1.00;;;;;;5022928;28;20480;-75
2023/07/17 08:19:39;;;;;;;5.60;4.70;;;25.10;1.00;;;;;;5026638;28;20895;-74
2023/07/17 08:22:09;;;;;;;5.40;4.90;;;25.20;1.00;;;;;;5019361;28;20457;-74
2023/07/17 08:24:36;;;;;;;6.67;4.90;;;25.30;1.00;;;;;;5022538;28;20571;-75
2023/07/17 08:27:03;;;;;;;4.50;4.10;;;25.30;1.00;;;;;;5020113;28;20479;-75
2023/07/17 08:29:30;;;;;;;7.30;5.33;;;25.40;1.00;;;;;;5021022;28;20467;-73
2023/07/17 08:31:59;;;;;;;6.33;4.63;;;25.60;1.00;;;;;;5025363;28;20503;-74
2023/07/17 08:34:29;;;;;;;5.37;4.40;;;25.60;1.00;;;;;;5023123;28;20587;-74
2023/07/17 08:36:56;;;;;;;5.47;4.93;;;25.60;1.00;;;;;;5023485;28;20485;-74
2023/07/17 08:39:25;;;;;;;5.53;4.70;;;25.70;1.00;;;;;;5022327;28;20481;-74
2023/07/17 08:41:52;;;;;;;6.93;4.83;;;25.80;1.00;;;;;;5025267;28;20450;-75
2023/07/17 08:44:20;;;;;;;5.17;4.50;;;25.90;1.00;;;;;;5010724;28;20490;-75
2023/07/17 08:46:48;;;;;;;5.93;5.40;;;26.10;1.00;;;;;;5019427;28;20477;-74
2023/07/17 08:49:19;;;;;;;5.03;4.27;;;26.40;1.00;;;;;;5024850;28;20439;-75
2023/07/17 08:51:47;;;;;;;5.60;4.13;;;26.50;1.00;;;;;;5010933;28;20497;-73
2023/07/17 08:54:16;;;;;;;5.23;4.00;;;26.50;1.00;;;;;;5020948;28;20471;-74
2023/07/17 08:56:44;;;;;;;9.37;5.47;;;26.60;1.00;;;;;;5020981;28;20497;-74
2023/07/17 08:59:12;;;;;;;4.20;3.80;;;26.70;1.00;;;;;;5021435;28;20949;-74
2023/07/17 09:01:40;;;;;;;9.23;4.50;;;26.80;1.00;;;;;;5021448;28;20536;-75
2023/07/17 09:04:08;;;;;;;5.60;4.13;;;26.80;1.00;;;;;;5022802;28;20495;-74
2023/07/17 09:06:37;;;;;;;5.30;4.20;;;26.80;1.00;;;;;;5021363;28;20461;-74
2023/07/17 09:09:04;;;;;;;4.67;3.83;;;26.80;1.00;;;;;;5021408;28;20545;-74
2023/07/17 09:11:33;;;;;;;6.13;3.70;;;26.80;1.00;;;;;;5021161;28;20475;-73
2023/07/17 09:14:01;;;;;;;9.87;4.40;;;26.70;1.00;;;;;;5022024;28;20463;-74
2023/07/17 09:16:28;;;;;;;5.23;4.40;;;26.80;1.00;;;;;;5021684;28;20514;-76
2023/07/17 09:18:55;;;;;;;5.00;4.10;;;26.80;1.00;;;;;;5021144;28;21401;-75
2023/07/17 09:21:23;;;;;;;4.30;3.90;;;27.00;1.00;;;;;;5022031;28;21065;-75
2023/07/17 09:23:53;;;;;;;6.77;4.70;;;27.20;1.00;;;;;;5017879;28;20978;-74
2023/07/17 09:26:22;;;;;;;4.63;3.50;;;27.20;1.00;;;;;;5020503;28;20463;-74
2023/07/17 09:28:50;;;;;;;5.13;4.60;;;27.40;1.00;;;;;;5003897;28;20514;-74
2023/07/17 09:31:24;;;;;;;6.97;4.60;;;27.50;1.00;;;;;;5021296;28;20509;-73
2023/07/17 09:33:51;;;;;;;5.13;4.63;;;27.70;1.00;;;;;;5021358;28;22650;-74
2023/07/17 09:36:18;;;;;;;8.10;5.10;;;27.90;1.00;;;;;;5024001;28;20487;-74
2023/07/17 09:38:50;;;;;;;4.93;4.43;;;28.10;1.00;;;;;;5018932;28;20493;-74
2023/07/17 09:41:23;;;;;;;5.43;4.10;;;28.50;1.00;;;;;;5026150;28;20469;-75
2023/07/17 09:43:55;;;;;;;4.23;3.80;;;29.30;1.00;;;;;;5018562;28;20479;-75
2023/07/17 09:46:22;;;;;;;6.33;4.07;;;30.50;1.00;;;;;;5020203;28;20454;-75
2023/07/17 09:48:52;;;;;;;4.47;4.07;;;31.60;1.00;;;;;;5021166;28;21405;-75
2023/07/17 09:51:20;;;;;;;6.47;4.60;;;31.90;1.00;;;;;;5025916;28;20472;-76
2023/07/17 09:53:47;;;;;;;7.27;4.20;;;32.70;1.00;;;;;;5020735;28;20402;-75
2023/07/17 09:56:16;;;;;;;9.07;4.73;;;33.40;1.00;;;;;;5021124;28;20563;-75
2023/07/17 09:58:50;;;;;;;5.57;4.57;;;34.00;1.00;;;;;;5021551;28;20564;-74
2023/07/17 10:01:19;;;;;;;4.60;4.20;;;34.50;1.00;;;;;;5024287;28;21039;-74
2023/07/17 10:03:47;;;;;;;6.23;4.63;;;34.80;1.00;;;;;;5021834;28;20555;-74
2023/07/17 10:06:15;;;;;;;4.53;4.13;;;35.00;1.00;;;;;;5023425;28;20791;-75
2023/07/17 10:08:46;;;;;;;11.07;4.97;;;35.30;1.00;;;;;;5024980;28;20573;-74
2023/07/17 10:11:15;;;;;;;4.20;3.80;;;34.20;1.00;;;;;;5024601;28;20485;-74
2023/07/17 10:13:43;;;;;;;5.60;5.00;;;32.50;1.00;;;;;;5023815;28;20911;-75
2023/07/17 10:16:14;;;;;;;4.83;4.33;;;31.30;1.00;;;;;;5025885;28;21218;-74
2023/07/17 10:18:48;;;;;;;6.17;3.67;;;31.00;1.00;;;;;;5023256;28;20539;-75
2023/07/17 10:21:16;;;;;;;5.83;3.80;;;31.70;1.00;;;;;;5024692;28;20490;-74
2023/07/17 10:23:44;;;;;;;5.97;4.47;;;32.70;1.00;;;;;;5022972;28;20867;-74
2023/07/17 10:26:13;;;;;;;5.27;3.93;;;32.90;1.00;;;;;;5026015;28;20526;-74
2023/07/17 10:28:41;;;;;;;6.13;4.40;;;33.40;1.00;;;;;;5024422;28;20520;-75
2023/07/17 10:31:19;;;;;;;5.80;4.13;;;34.60;1.00;;;;;;5021817;28;20465;-74
2023/07/17 10:33:49;;;;;;;5.10;4.40;;;35.60;1.00;;;;;;5025366;28;20457;-77
2023/07/17 10:36:16;;;;;;;5.20;4.60;;;36.60;1.00;;;;;;5023991;28;20437;-75
2023/07/17 10:38:49;;;;;;;7.43;4.03;;;37.20;1.00;;;;;;5024177;28;20459;-75
2023/07/17 10:41:26;;;;;;;4.30;3.90;;;37.70;1.00;;;;;;5025716;28;20564;-75
2023/07/17 10:43:54;;;;;;;7.57;5.57;;;38.50;1.00;;;;;;5023828;28;20456;-76
2023/07/17 10:46:28;;;;;;;4.57;4.13;;;39.30;1.00;;;;;;5026917;28;20849;-75
2023/07/17 10:48:56;;;;;;;4.20;3.80;;;39.80;1.00;;;;;;5021899;28;20441;-75
2023/07/17 10:51:27;;;;;;;6.07;4.17;;;39.70;1.00;;;;;;5025063;28;20472;-76
2023/07/17 10:54:03;;;;;;;5.77;3.80;;;38.30;1.00;;;;;;5022316;28;20830;-75
2023/07/17 10:56:31;;;;;;;6.10;4.30;;;35.80;1.00;;;;;;5028103;28;20512;-77
2023/07/17 10:58:58;;;;;;;4.30;3.70;;;33.50;1.00;;;;;;5022435;28;20935;-74
2023/07/17 11:01:27;;;;;;;5.40;4.10;;;32.20;1.00;;;;;;5023941;28;20430;-76
2023/07/17 11:04:01;;;;;;;6.57;4.03;;;32.00;1.00;;;;;;5024663;28;20507;-76
2023/07/17 11:06:28;;;;;;;5.50;4.00;;;33.10;1.00;;;;;;5025443;28;21015;-75
2023/07/17 11:08:58;;;;;;;5.50;4.03;;;34.20;1.00;;;;;;5023128;28;20540;-75
2023/07/17 11:11:25;;;;;;;4.57;3.97;;;34.20;1.00;;;;;;5026532;28;20469;-75
2023/07/17 11:13:53;;;;;;;8.70;4.10;;;33.30;1.00;;;;;;5024552;28;21371;-76
2023/07/17 11:16:23;;;;;;;4.03;3.50;;;32.50;1.00;;;;;;5023395;28;20509;-74
2023/07/17 11:18:53;;;;;;;3.77;3.37;;;31.60;1.00;;;;;;5027033;28;20492;-76
2023/07/17 11:21:22;;;;;;;5.17;3.30;;;31.00;1.00;;;;;;5025167;28;20496;-75
2023/07/17 11:23:50;;;;;;;5.07;3.67;;;30.60;1.00;;;;;;5023820;28;20465;-75
2023/07/17 11:26:19;;;;;;;4.00;3.60;;;30.60;1.00;;;;;;5025835;28;20500;-76
2023/07/17 11:28:49;;;;;;;12.13;6.30;;;31.50;1.00;;;;;;5023563;28;20437;-75
2023/07/17 11:31:22;;;;;;;5.97;3.43;;;32.90;1.00;;;;;;5025682;28;20485;-75
2023/07/17 11:33:58;;;;;;;5.30;3.53;;;33.50;1.00;;;;;;5022635;28;20901;-76
2023/07/17 11:36:26;;;;;;;4.83;3.70;;;34.70;1.00;;;;;;5027975;28;20486;-75
2023/07/17 11:38:56;;;;;;;4.83;3.13;;;35.70;1.00;;;;;;5025232;28;20529;-76
2023/07/17 11:41:24;;;;;;;5.97;3.80;;;37.00;1.00;;;;;;5024700;28;20475;-75
2023/07/17 11:43:57;;;;;;;4.03;3.63;;;37.50;1.00;;;;;;5026745;28;20541;-76
2023/07/17 11:46:24;;;;;;;4.57;3.73;;;37.40;1.00;;;;;;5022936;28;20950;-76
2023/07/17 11:48:54;;;;;;;5.83;3.80;;;38.20;1.00;;;;;;5022904;28;20466;-75
2023/07/17 11:51:26;;;;;;;8.03;4.33;;;38.20;1.00;;;;;;5024499;28;20890;-76
2023/07/17 11:53:55;;;;;;;5.50;3.23;;;36.80;1.00;;;;;;5023642;28;20445;-74
2023/07/17 11:56:32;;;;;;;4.23;3.50;;;35.20;1.00;;;;;;5024102;28;20496;-76
2023/07/17 11:58:59;;;;;;;7.07;3.80;;;34.50;1.00;;;;;;5027051;28;20609;-77
2023/07/17 12:01:27;;;;;;;5.03;3.70;;;36.10;1.00;;;;;;5024145;28;20921;-76
2023/07/17 12:03:54;;;;;;;8.53;3.60;;;37.40;1.00;;;;;;5024378;28;20453;-75
2023/07/17 12:06:21;;;;;;;6.57;3.67;;;38.40;1.00;;;;;;5025589;28;20512;-74
2023/07/17 12:08:50;;;;;;;6.27;3.57;;;39.30;1.00;;;;;;5021192;28;20968;-75
2023/07/17 12:11:16;;;;;;;5.13;3.37;;;40.50;1.00;;;;;;5022247;28;20899;-74
2023/07/17 12:13:43;;;;;;;4.53;3.00;;;40.40;1.00;;;;;;5020877;28;20524;-75
2023/07/17 12:16:10;;;;;;;6.23;3.30;;;40.70;1.00;;;;;;5021725;28;20645;-74
2023/07/17 12:18:37;;;;;;;4.40;2.80;;;41.30;1.00;;;;;;5024362;28;20469;-75
2023/07/17 12:21:04;;;;;;;3.43;3.10;;;41.60;1.00;;;;;;5022412;28;20457;-75
2023/07/17 12:23:31;;;;;;;4.17;3.40;;;41.70;1.00;;;;;;5019107;28;20477;-73
2023/07/17 12:26:00;;;;;;;5.60;3.23;;;42.00;1.00;;;;;;5020391;28;20470;-75
2023/07/17 12:28:31;;;;;;;4.80;3.73;;;41.40;1.00;;;;;;5024248;28;21000;-75
2023/07/17 12:30:58;;;;;;;5.20;3.37;;;41.40;1.00;;;;;;5022601;28;20556;-76
2023/07/17 12:33:25;;;;;;;3.50;3.20;;;41.30;1.00;;;;;;5020823;28;20524;-75
2023/07/17 12:35:52;;;;;;;3.50;3.20;;;41.10;1.00;;;;;;5022102;28;20541;-75
2023/07/17 12:38:19;;;;;;;3.83;3.40;;;41.00;1.00;;;;;;5023624;28;20516;-75
2023/07/17 12:40:46;;;;;;;3.27;2.63;;;40.70;1.00;;;;;;5022914;28;20450;-75
2023/07/17 12:43:15;;;;;;;7.03;2.97;;;41.00;1.00;;;;;;5021046;28;20905;-75
2023/07/17 12:45:42;;;;;;;3.73;2.90;;;41.50;1.00;;;;;;5021784;28;20492;-75
2023/07/17 12:48:10;;;;;;;3.90;3.43;;;41.40;1.00;;;;;;5005797;28;20553;-76
2023/07/17 12:50:37;;;;;;;6.60;4.23;;;41.40;1.00;;;;;;5023209;28;20477;-75
2023/07/17 12:53:04;;;;;;;5.83;3.73;;;40.50;1.00;;;;;;5024198;28;20457;-75
2023/07/17 12:55:31;;;;;;;4.73;3.67;;;40.30;1.00;;;;;;5024981;28;20472;-75
2023/07/17 12:57:58;;;;;;;4.23;3.40;;;40.40;1.00;;;;;;5026279;28;20662;-76